sensor_id;sensor_type;location;lat;lon;timestamp;pressure;altitude;pressure_sealevel;temperature;humidity
76694;BME280;69667;52.136;5.424;2024-03-08T00:00:15;102036.69;;;2.74;100.00
76694;BME280;69667;52.136;5.424;2024-03-08T00:02:47;102027.00;;;2.72;100.00
76694;BME280;69667;52.136;5.424;2024-03-08T00:05:15;102022.50;;;2.74;100.00
76694;BME280;69667;52.136;5.424;2024-03-08T00:07:43;102021.72;;;2.70;100.00
76694;BME280;69667;52.136;5.424;2024-03-08T00:10:12;102019.09;;;2.67;100.00
76694;BME280;69667;52.136;5.424;2024-03-08T00:12:43;102016.50;;;2.64;100.00
76694;BME280;69667;52.136;5.424;2024-03-08T00:15:16;102014.84;;;2.60;100.00
76694;BME280;69667;52.136;5.424;2024-03-08T00:17:46;102016.66;;;2.58;100.00
76694;BME280;69667;52.136;5.424;2024-03-08T00:20:15;102018.47;;;2.56;100.00
76694;BME280;69667;52.136;5.424;2024-03-08T00:22:46;102018.53;;;2.54;100.00
76694;BME280;69667;52.136;5.424;2024-03-08T00:25:13;102011.50;;;2.50;100.00
76694;BME280;69667;52.136;5.424;2024-03-08T00:27:42;102011.56;;;2.47;100.00
76694;BME280;69667;52.136;5.424;2024-03-08T00:30:10;102009.84;;;2.46;100.00
76694;BME280;69667;52.136;5.424;2024-03-08T00:32:40;102014.34;;;2.43;100.00
76694;BME280;69667;52.136;5.424;2024-03-08T00:35:13;102010.84;;;2.41;100.00
76694;BME280;69667;52.136;5.424;2024-03-08T00:37:40;102011.84;;;2.37;100.00
76694;BME280;69667;52.136;5.424;2024-03-08T00:40:09;102007.38;;;2.37;100.00
76694;BME280;69667;52.136;5.424;2024-03-08T00:42:36;102002.16;;;2.33;100.00
76694;BME280;69667;52.136;5.424;2024-03-08T00:45:05;102003.03;;;2.33;100.00
76694;BME280;69667;52.136;5.424;2024-03-08T00:47:33;102002.16;;;2.33;100.00
76694;BME280;69667;52.136;5.424;2024-03-08T00:50:01;101999.50;;;2.33;100.00
76694;BME280;69667;52.136;5.424;2024-03-08T00:52:32;102001.31;;;2.31;100.00
76694;BME280;69667;52.136;5.424;2024-03-08T00:55:02;101994.28;;;2.28;100.00
76694;BME280;69667;52.136;5.424;2024-03-08T00:57:30;101991.66;;;2.25;100.00
76694;BME280;69667;52.136;5.424;2024-03-08T00:59:57;101989.06;;;2.22;100.00
76694;BME280;69667;52.136;5.424;2024-03-08T01:02:24;101979.44;;;2.18;100.00
76694;BME280;69667;52.136;5.424;2024-03-08T01:04:52;101978.53;;;2.18;100.00
76694;BME280;69667;52.136;5.424;2024-03-08T01:07:20;101975.91;;;2.16;100.00
76694;BME280;69667;52.136;5.424;2024-03-08T01:09:47;101966.28;;;2.11;100.00
76694;BME280;69667;52.136;5.424;2024-03-08T01:12:14;101960.09;;;2.09;100.00
76694;BME280;69667;52.136;5.424;2024-03-08T01:14:43;101962.78;;;2.07;100.00
76694;BME280;69667;52.136;5.424;2024-03-08T01:17:21;101956.63;;;2.05;100.00
76694;BME280;69667;52.136;5.424;2024-03-08T01:19:48;101953.19;;;2.02;100.00
76694;BME280;69667;52.136;5.424;2024-03-08T01:22:15;101954.03;;;2.02;100.00
76694;BME280;69667;52.136;5.424;2024-03-08T01:24:43;101952.38;;;1.98;100.00
76694;BME280;69667;52.136;5.424;2024-03-08T01:27:10;101947.09;;;1.95;100.00
76694;BME280;69667;52.136;5.424;2024-03-08T01:29:37;101946.25;;;1.95;100.00
76694;BME280;69667;52.136;5.424;2024-03-08T01:32:05;101941.84;;;1.92;100.00
76694;BME280;69667;52.136;5.424;2024-03-08T01:34:33;101946.34;;;1.90;100.00
76694;BME280;69667;52.136;5.424;2024-03-08T01:37:01;101935.81;;;1.84;100.00
76694;BME280;69667;52.136;5.424;2024-03-08T01:39:28;101931.47;;;1.82;100.00
76694;BME280;69667;52.136;5.424;2024-03-08T01:41:55;101933.31;;;1.78;100.00
76694;BME280;69667;52.136;5.424;2024-03-08T01:44:22;101923.56;;;1.77;100.00
76694;BME280;69667;52.136;5.424;2024-03-08T01:46:50;101926.28;;;1.74;100.00
76694;BME280;69667;52.136;5.424;2024-03-08T01:49:21;101919.22;;;1.73;100.00
76694;BME280;69667;52.136;5.424;2024-03-08T01:51:49;101918.38;;;1.71;100.00
76694;BME280;69667;52.136;5.424;2024-03-08T01:54:17;101919.31;;;1.69;100.00
76694;BME280;69667;52.136;5.424;2024-03-08T01:56:45;101916.72;;;1.66;100.00
76694;BME280;69667;52.136;5.424;2024-03-08T01:59:13;101913.22;;;1.64;100.00
76694;BME280;69667;52.136;5.424;2024-03-08T02:01:42;101921.25;;;1.61;100.00
76694;BME280;69667;52.136;5.424;2024-03-08T02:04:10;101904.53;;;1.56;100.00
76694;BME280;69667;52.136;5.424;2024-03-08T02:06:41;101911.66;;;1.55;100.00
76694;BME280;69667;52.136;5.424;2024-03-08T02:09:08;101904.63;;;1.51;100.00
76694;BME280;69667;52.136;5.424;2024-03-08T02:11:37;101902.91;;;1.49;100.00
76694;BME280;69667;52.136;5.424;2024-03-08T02:14:04;101907.41;;;1.47;100.00
76694;BME280;69667;52.136;5.424;2024-03-08T02:16:33;101904.78;;;1.45;100.00
76694;BME280;69667;52.136;5.424;2024-03-08T02:19:00;101905.69;;;1.43;100.00
76694;BME280;69667;52.136;5.424;2024-03-08T02:21:28;101900.44;;;1.40;100.00
76694;BME280;69667;52.136;5.424;2024-03-08T02:23:56;101898.72;;;1.37;100.00
76694;BME280;69667;52.136;5.424;2024-03-08T02:26:23;101896.13;;;1.34;100.00
76694;BME280;69667;52.136;5.424;2024-03-08T02:28:50;101894.41;;;1.32;100.00
76694;BME280;69667;52.136;5.424;2024-03-08T02:31:18;101888.31;;;1.26;100.00
76694;BME280;69667;52.136;5.424;2024-03-08T02:33:45;101884.81;;;1.24;100.00
76694;BME280;69667;52.136;5.424;2024-03-08T02:36:14;101881.25;;;1.24;100.00
76694;BME280;69667;52.136;5.424;2024-03-08T02:38:43;101877.75;;;1.23;100.00
76694;BME280;69667;52.136;5.424;2024-03-08T02:41:10;101879.56;;;1.21;100.00
76694;BME280;69667;52.136;5.424;2024-03-08T02:43:37;101872.50;;;1.19;100.00
76694;BME280;69667;52.136;5.424;2024-03-08T02:46:04;101874.31;;;1.17;100.00
76694;BME280;69667;52.136;5.424;2024-03-08T02:48:32;101861.97;;;1.14;100.00
76694;BME280;69667;52.136;5.424;2024-03-08T02:50:59;101861.13;;;1.12;100.00
76694;BME280;69667;52.136;5.424;2024-03-08T02:53:26;101850.56;;;1.09;100.00
76694;BME280;69667;52.136;5.424;2024-03-08T02:55:54;101852.31;;;1.10;100.00
76694;BME280;69667;52.136;5.424;2024-03-08T02:58:21;101854.06;;;1.11;100.00
76694;BME280;69667;52.136;5.424;2024-03-08T03:00:49;101848.78;;;1.10;100.00
76694;BME280;69667;52.136;5.424;2024-03-08T03:03:16;101847.03;;;1.09;100.00
76694;BME280;69667;52.136;5.424;2024-03-08T03:05:43;101848.81;;;1.07;100.00
76694;BME280;69667;52.136;5.424;2024-03-08T03:08:14;101850.66;;;1.05;100.00
76694;BME280;69667;52.136;5.424;2024-03-08T03:10:45;101839.19;;;1.03;100.00
76694;BME280;69667;52.136;5.424;2024-03-08T03:13:13;101844.50;;;1.03;100.00
76694;BME280;69667;52.136;5.424;2024-03-08T03:15:41;101833.94;;;1.00;100.00
76694;BME280;69667;52.136;5.424;2024-03-08T03:18:11;101834.75;;;1.02;100.00
76694;BME280;69667;52.136;5.424;2024-03-08T03:20:38;101837.44;;;1.00;100.00
76694;BME280;69667;52.136;5.424;2024-03-08T03:23:10;101833.94;;;1.00;100.00
76694;BME280;69667;52.136;5.424;2024-03-08T03:25:43;101831.31;;;0.97;100.00
76694;BME280;69667;52.136;5.424;2024-03-08T03:28:10;101823.41;;;0.94;100.00
76694;BME280;69667;52.136;5.424;2024-03-08T03:30:44;101824.25;;;0.96;100.00
76694;BME280;69667;52.136;5.424;2024-03-08T03:33:29;101827.00;;;0.93;100.00
76694;BME280;69667;52.136;5.424;2024-03-08T03:35:56;101819.00;;;0.93;100.00
76694;BME280;69667;52.136;5.424;2024-03-08T03:38:23;101829.59;;;0.94;100.00
76694;BME280;69667;52.136;5.424;2024-03-08T03:40:52;101825.22;;;0.92;100.00
76694;BME280;69667;52.136;5.424;2024-03-08T03:43:23;101820.81;;;0.91;100.00
76694;BME280;69667;52.136;5.424;2024-03-08T03:45:50;101811.13;;;0.90;100.00
76694;BME280;69667;52.136;5.424;2024-03-08T03:48:17;101806.69;;;0.89;100.00
76694;BME280;69667;52.136;5.424;2024-03-08T03:50:45;101818.16;;;0.91;100.00
76694;BME280;69667;52.136;5.424;2024-03-08T03:53:12;101807.56;;;0.89;100.00
76694;BME280;69667;52.136;5.424;2024-03-08T03:55:40;101803.19;;;0.88;100.00
76694;BME280;69667;52.136;5.424;2024-03-08T03:58:10;101809.34;;;0.89;100.00
76694;BME280;69667;52.136;5.424;2024-03-08T04:00:38;101806.72;;;0.87;100.00
76694;BME280;69667;52.136;5.424;2024-03-08T04:03:06;101805.84;;;0.87;100.00
76694;BME280;69667;52.136;5.424;2024-03-08T04:05:36;101805.88;;;0.85;100.00
76694;BME280;69667;52.136;5.424;2024-03-08T04:08:04;101807.72;;;0.83;100.00
76694;BME280;69667;52.136;5.424;2024-03-08T04:10:31;101808.59;;;0.82;100.00
76694;BME280;69667;52.136;5.424;2024-03-08T04:12:58;101800.66;;;0.81;100.00
76694;BME280;69667;52.136;5.424;2024-03-08T04:15:43;101799.78;;;0.80;100.00
76694;BME280;69667;52.136;5.424;2024-03-08T04:18:15;101794.47;;;0.80;100.00
76694;BME280;69667;52.136;5.424;2024-03-08T04:20:42;101794.50;;;0.79;100.00
76694;BME280;69667;52.136;5.424;2024-03-08T04:23:10;101797.19;;;0.77;100.00
76694;BME280;69667;52.136;5.424;2024-03-08T04:25:36;101790.09;;;0.78;100.00
76694;BME280;69667;52.136;5.424;2024-03-08T04:28:04;101781.28;;;0.76;100.00
76694;BME280;69667;52.136;5.424;2024-03-08T04:30:31;101789.28;;;0.74;100.00
76694;BME280;69667;52.136;5.424;2024-03-08T04:32:58;101788.44;;;0.72;100.00
76694;BME280;69667;52.136;5.424;2024-03-08T04:35:25;101786.63;;;0.74;100.00
76694;BME280;69667;52.136;5.424;2024-03-08T04:37:52;101785.78;;;0.72;100.00
76694;BME280;69667;52.136;5.424;2024-03-08T04:40:20;101778.72;;;0.71;100.00
76694;BME280;69667;52.136;5.424;2024-03-08T04:42:47;101780.53;;;0.69;100.00
76694;BME280;69667;52.136;5.424;2024-03-08T04:45:15;101772.63;;;0.66;100.00
76694;BME280;69667;52.136;5.424;2024-03-08T04:47:43;101777.91;;;0.68;100.00
76694;BME280;69667;52.136;5.424;2024-03-08T04:50:10;101771.72;;;0.67;100.00
76694;BME280;69667;52.136;5.424;2024-03-08T04:52:38;101777.94;;;0.66;100.00
76694;BME280;69667;52.136;5.424;2024-03-08T04:55:06;101770.81;;;0.67;100.00
76694;BME280;69667;52.136;5.424;2024-03-08T04:57:33;101775.31;;;0.65;100.00
76694;BME280;69667;52.136;5.424;2024-03-08T05:00:00;101772.72;;;0.62;100.00
76694;BME280;69667;52.136;5.424;2024-03-08T05:02:29;101770.06;;;0.62;100.00
76694;BME280;69667;52.136;5.424;2024-03-08T05:04:56;101769.19;;;0.61;100.00
76694;BME280;69667;52.136;5.424;2024-03-08T05:07:23;101765.66;;;0.61;100.00
76694;BME280;69667;52.136;5.424;2024-03-08T05:09:50;101764.75;;;0.60;100.00
76694;BME280;69667;52.136;5.424;2024-03-08T05:12:19;101768.41;;;0.56;100.00
76694;BME280;69667;52.136;5.424;2024-03-08T05:14:46;101768.41;;;0.56;100.00
76694;BME280;69667;52.136;5.424;2024-03-08T05:17:16;101773.72;;;0.56;100.00
76694;BME280;69667;52.136;5.424;2024-03-08T05:19:45;101764.00;;;0.54;100.00
76694;BME280;69667;52.136;5.424;2024-03-08T05:22:12;101759.66;;;0.51;100.00
76694;BME280;69667;52.136;5.424;2024-03-08T05:24:39;101771.13;;;0.53;100.00
76694;BME280;69667;52.136;5.424;2024-03-08T05:27:06;101764.97;;;0.51;100.00
76694;BME280;69667;52.136;5.424;2024-03-08T05:29:33;101763.19;;;0.50;100.00
76694;BME280;69667;52.136;5.424;2024-03-08T05:32:00;101757.06;;;0.48;100.00
76694;BME280;69667;52.136;5.424;2024-03-08T05:34:27;101759.72;;;0.48;100.00
76694;BME280;69667;52.136;5.424;2024-03-08T05:36:55;101749.97;;;0.47;100.00
76694;BME280;69667;52.136;5.424;2024-03-08T05:39:25;101758.00;;;0.44;100.00
76694;BME280;69667;52.136;5.424;2024-03-08T05:41:52;101757.97;;;0.46;100.00
76694;BME280;69667;52.136;5.424;2024-03-08T05:44:19;101750.06;;;0.43;100.00
76694;BME280;69667;52.136;5.424;2024-03-08T05:46:47;101751.91;;;0.39;100.00
76694;BME280;69667;52.136;5.424;2024-03-08T05:49:14;101755.41;;;0.41;100.00
76694;BME280;69667;52.136;5.424;2024-03-08T05:51:46;101756.31;;;0.40;100.00
76694;BME280;69667;52.136;5.424;2024-03-08T05:54:15;101749.25;;;0.39;100.00
76694;BME280;69667;52.136;5.424;2024-03-08T05:56:45;101748.38;;;0.39;100.00
76694;BME280;69667;52.136;5.424;2024-03-08T05:59:14;101744.00;;;0.36;100.00
76694;BME280;69667;52.136;5.424;2024-03-08T06:01:42;101743.09;;;0.37;100.00
76694;BME280;69667;52.136;5.424;2024-03-08T06:04:11;101736.91;;;0.38;100.00
76694;BME280;69667;52.136;5.424;2024-03-08T06:06:39;101730.66;;;0.39;100.00
76694;BME280;69667;52.136;5.424;2024-03-08T06:09:08;101732.44;;;0.39;100.00
76694;BME280;69667;52.136;5.424;2024-03-08T06:11:42;101732.38;;;0.43;100.00
76694;BME280;69667;52.136;5.424;2024-03-08T06:14:09;101729.66;;;0.46;100.00
76694;BME280;69667;52.136;5.424;2024-03-08T06:16:36;101727.88;;;0.47;100.00
76694;BME280;69667;52.136;5.424;2024-03-08T06:19:05;101729.59;;;0.49;100.00
76694;BME280;69667;52.136;5.424;2024-03-08T06:21:33;101729.59;;;0.49;100.00
76694;BME280;69667;52.136;5.424;2024-03-08T06:24:00;101729.47;;;0.54;100.00
76694;BME280;69667;52.136;5.424;2024-03-08T06:26:27;101731.25;;;0.55;100.00
76694;BME280;69667;52.136;5.424;2024-03-08T06:28:59;101724.09;;;0.58;100.00
76694;BME280;69667;52.136;5.424;2024-03-08T06:31:27;101731.97;;;0.63;100.00
76694;BME280;69667;52.136;5.424;2024-03-08T06:34:00;101726.59;;;0.66;100.00
76694;BME280;69667;52.136;5.424;2024-03-08T06:36:27;101732.75;;;0.68;100.00
76694;BME280;69667;52.136;5.424;2024-03-08T06:38:55;101733.56;;;0.71;100.00
76694;BME280;69667;52.136;5.424;2024-03-08T06:41:24;101729.88;;;0.77;100.00
76694;BME280;69667;52.136;5.424;2024-03-08T06:43:51;101730.66;;;0.82;100.00
76694;BME280;69667;52.136;5.424;2024-03-08T06:46:19;101723.50;;;0.85;100.00
76694;BME280;69667;52.136;5.424;2024-03-08T06:48:48;101720.75;;;0.90;100.00
76694;BME280;69667;52.136;5.424;2024-03-08T06:51:18;101718.88;;;0.95;100.00
76694;BME280;69667;52.136;5.424;2024-03-08T06:53:45;101720.50;;;1.00;100.00
76694;BME280;69667;52.136;5.424;2024-03-08T06:56:12;101720.44;;;1.05;100.00
76694;BME280;69667;52.136;5.424;2024-03-08T06:58:40;101717.66;;;1.09;100.00
76694;BME280;69667;52.136;5.424;2024-03-08T07:01:08;101717.47;;;1.17;100.00
76694;BME280;69667;52.136;5.424;2024-03-08T07:03:42;101714.69;;;1.23;100.00
76694;BME280;69667;52.136;5.424;2024-03-08T07:06:20;101718.91;;;1.32;100.00
76694;BME280;69667;52.136;5.424;2024-03-08T07:08:49;101714.31;;;1.38;100.00
76694;BME280;69667;52.136;5.424;2024-03-08T07:11:39;101717.63;;;1.48;100.00
76694;BME280;69667;52.136;5.424;2024-03-08T07:14:11;101712.94;;;1.57;100.00
76694;BME280;69667;52.136;5.424;2024-03-08T07:16:39;101709.09;;;1.69;100.00
76694;BME280;69667;52.136;5.424;2024-03-08T07:19:06;101705.84;;;1.93;100.00
76694;BME280;69667;52.136;5.424;2024-03-08T07:21:33;101700.97;;;3.55;100.00
76694;BME280;69667;52.136;5.424;2024-03-08T07:24:00;101696.75;;;5.17;100.00
76694;BME280;69667;52.136;5.424;2024-03-08T07:26:27;101683.34;;;6.64;96.31
76694;BME280;69667;52.136;5.424;2024-03-08T07:28:54;101671.97;;;8.03;88.43
76694;BME280;69667;52.136;5.424;2024-03-08T07:31:21;101666.78;;;8.67;80.77
76694;BME280;69667;52.136;5.424;2024-03-08T07:34:04;101655.63;;;9.52;74.61
76694;BME280;69667;52.136;5.424;2024-03-08T07:36:34;101660.72;;;10.02;70.03
76694;BME280;69667;52.136;5.424;2024-03-08T07:39:04;101653.06;;;10.96;66.60
76694;BME280;69667;52.136;5.424;2024-03-08T07:41:39;101651.44;;;11.34;62.33
76694;BME280;69667;52.136;5.424;2024-03-08T07:44:18;101644.06;;;12.16;59.52
76694;BME280;69667;52.136;5.424;2024-03-08T07:46:46;101637.94;;;13.02;56.49
76694;BME280;69667;52.136;5.424;2024-03-08T07:49:13;101635.28;;;13.13;54.66
76694;BME280;69667;52.136;5.424;2024-03-08T07:51:42;101634.63;;;13.45;52.04
76694;BME280;69667;52.136;5.424;2024-03-08T07:54:09;101649.63;;;9.92;54.45
76694;BME280;69667;52.136;5.424;2024-03-08T07:56:36;101656.63;;;7.35;60.17
76694;BME280;69667;52.136;5.424;2024-03-08T07:59:05;101657.03;;;6.13;64.67
76694;BME280;69667;52.136;5.424;2024-03-08T08:01:32;101662.44;;;5.29;68.67
76694;BME280;69667;52.136;5.424;2024-03-08T08:04:02;101659.47;;;4.91;71.72
76694;BME280;69667;52.136;5.424;2024-03-08T08:06:29;101655.19;;;4.64;73.74
76694;BME280;69667;52.136;5.424;2024-03-08T08:09:00;101650.78;;;4.40;77.46
76694;BME280;69667;52.136;5.424;2024-03-08T08:11:27;101650.50;;;4.23;79.40
76694;BME280;69667;52.136;5.424;2024-03-08T08:13:56;101642.03;;;4.11;79.66
76694;BME280;69667;52.136;5.424;2024-03-08T08:16:23;101645.19;;;3.99;80.67
76694;BME280;69667;52.136;5.424;2024-03-08T08:18:50;101646.78;;;4.03;81.51
76694;BME280;69667;52.136;5.424;2024-03-08T08:21:17;101638.25;;;3.93;82.29
76694;BME280;69667;52.136;5.424;2024-03-08T08:23:47;101638.78;;;4.03;82.63
76694;BME280;69667;52.136;5.424;2024-03-08T08:26:30;101624.31;;;5.65;82.76
76694;BME280;69667;52.136;5.424;2024-03-08T08:29:07;101617.59;;;8.96;74.82
76694;BME280;69667;52.136;5.424;2024-03-08T08:31:34;101603.38;;;11.25;63.96
76694;BME280;69667;52.136;5.424;2024-03-08T08:34:01;101607.59;;;12.59;57.50
76694;BME280;69667;52.136;5.424;2024-03-08T08:36:30;101601.50;;;13.29;53.93
76694;BME280;69667;52.136;5.424;2024-03-08T08:38:58;101587.88;;;14.46;50.54
76694;BME280;69667;52.136;5.424;2024-03-08T08:41:26;101583.59;;;14.98;47.06
76694;BME280;69667;52.136;5.424;2024-03-08T08:43:54;101573.56;;;15.53;45.62
76694;BME280;69667;52.136;5.424;2024-03-08T08:46:35;101580.78;;;16.47;44.35
76694;BME280;69667;52.136;5.424;2024-03-08T08:49:08;101563.16;;;16.91;41.66
76694;BME280;69667;52.136;5.424;2024-03-08T08:51:37;101562.66;;;17.06;40.44
76694;BME280;69667;52.136;5.424;2024-03-08T08:54:05;101560.31;;;17.51;39.67
76694;BME280;69667;52.136;5.424;2024-03-08T08:56:39;101569.09;;;17.83;39.12
76694;BME280;69667;52.136;5.424;2024-03-08T08:59:06;101560.97;;;18.48;37.53
76694;BME280;69667;52.136;5.424;2024-03-08T09:01:46;101554.34;;;19.15;36.27
76694;BME280;69667;52.136;5.424;2024-03-08T09:04:17;101547.72;;;18.90;36.03
76694;BME280;69667;52.136;5.424;2024-03-08T09:06:44;101550.59;;;18.52;35.96
76694;BME280;69667;52.136;5.424;2024-03-08T09:09:11;101547.00;;;19.15;35.51
76694;BME280;69667;52.136;5.424;2024-03-08T09:11:40;101544.50;;;18.94;37.16
76694;BME280;69667;52.136;5.424;2024-03-08T09:14:09;101537.09;;;20.02;35.12
76694;BME280;69667;52.136;5.424;2024-03-08T09:16:39;101543.28;;;20.47;33.66
76694;BME280;69667;52.136;5.424;2024-03-08T09:19:06;101534.75;;;20.07;33.58
76694;BME280;69667;52.136;5.424;2024-03-08T09:21:33;101527.25;;;19.91;33.55
76694;BME280;69667;52.136;5.424;2024-03-08T09:24:03;101522.97;;;20.14;32.76
76694;BME280;69667;52.136;5.424;2024-03-08T09:26:30;101526.81;;;19.61;33.42
76694;BME280;69667;52.136;5.424;2024-03-08T09:28:57;101526.09;;;19.76;32.66
76694;BME280;69667;52.136;5.424;2024-03-08T09:31:25;101523.31;;;19.51;33.94
76694;BME280;69667;52.136;5.424;2024-03-08T09:33:52;101512.38;;;18.42;34.92
76694;BME280;69667;52.136;5.424;2024-03-08T09:36:20;101514.19;;;19.68;33.40
76694;BME280;69667;52.136;5.424;2024-03-08T09:38:48;101507.00;;;19.67;33.04
76694;BME280;69667;52.136;5.424;2024-03-08T09:41:17;101500.03;;;18.92;34.35
76694;BME280;69667;52.136;5.424;2024-03-08T09:43:51;101509.06;;;17.64;35.35
76694;BME280;69667;52.136;5.424;2024-03-08T09:46:21;101492.50;;;17.46;36.48
76694;BME280;69667;52.136;5.424;2024-03-08T09:48:49;101488.59;;;17.97;35.24
76694;BME280;69667;52.136;5.424;2024-03-08T09:51:17;101483.13;;;17.20;36.44
76694;BME280;69667;52.136;5.424;2024-03-08T09:53:44;101473.88;;;16.83;37.81
76694;BME280;69667;52.136;5.424;2024-03-08T09:56:13;101475.81;;;15.81;38.26
76694;BME280;69667;52.136;5.424;2024-03-08T09:58:40;101480.06;;;15.22;40.18
76694;BME280;69667;52.136;5.424;2024-03-08T10:01:39;101476.38;;;14.03;42.70
76694;BME280;69667;52.136;5.424;2024-03-08T10:04:07;101467.75;;;14.20;42.87
76694;BME280;69667;52.136;5.424;2024-03-08T10:06:37;101468.75;;;15.99;41.47
76694;BME280;69667;52.136;5.424;2024-03-08T10:09:04;101456.28;;;15.97;39.32
76694;BME280;69667;52.136;5.424;2024-03-08T10:11:34;101461.94;;;14.25;41.87
76694;BME280;69667;52.136;5.424;2024-03-08T10:14:01;101459.75;;;14.94;42.07
76694;BME280;69667;52.136;5.424;2024-03-08T10:16:28;101452.03;;;14.68;42.43
76694;BME280;69667;52.136;5.424;2024-03-08T10:18:59;101449.22;;;15.01;41.23
76694;BME280;69667;52.136;5.424;2024-03-08T10:21:28;101437.41;;;14.91;42.45
76694;BME280;69667;52.136;5.424;2024-03-08T10:23:55;101429.63;;;15.18;41.83
76694;BME280;69667;52.136;5.424;2024-03-08T10:26:22;101423.66;;;17.05;39.12
76694;BME280;69667;52.136;5.424;2024-03-08T10:28:52;101411.88;;;18.17;36.50
76694;BME280;69667;52.136;5.424;2024-03-08T10:31:22;101419.56;;;17.95;37.43
76694;BME280;69667;52.136;5.424;2024-03-08T10:33:49;101405.06;;;19.81;35.00
76694;BME280;69667;52.136;5.424;2024-03-08T10:36:16;101401.94;;;20.69;32.88
76694;BME280;69667;52.136;5.424;2024-03-08T10:38:44;101402.16;;;19.57;33.34
76694;BME280;69667;52.136;5.424;2024-03-08T10:41:16;101394.66;;;19.84;33.26
76694;BME280;69667;52.136;5.424;2024-03-08T10:49:40;101372.72;;;19.84;33.13
76694;BME280;69667;52.136;5.424;2024-03-08T10:52:14;101372.84;;;19.49;33.40
76694;BME280;69667;52.136;5.424;2024-03-08T10:54:43;101361.16;;;19.47;33.51
76694;BME280;69667;52.136;5.424;2024-03-08T10:57:17;101374.53;;;18.62;33.71
76694;BME280;69667;52.136;5.424;2024-03-08T10:59:45;101363.19;;;17.38;36.02
76694;BME280;69667;52.136;5.424;2024-03-08T11:02:15;101361.34;;;16.72;37.07
76694;BME280;69667;52.136;5.424;2024-03-08T11:04:50;101351.75;;;16.18;38.99
76694;BME280;69667;52.136;5.424;2024-03-08T11:07:19;101342.72;;;15.78;40.22
76694;BME280;69667;52.136;5.424;2024-03-08T11:09:50;101343.94;;;15.44;39.65
76694;BME280;69667;52.136;5.424;2024-03-08T11:12:27;101345.47;;;15.16;41.42
76694;BME280;69667;52.136;5.424;2024-03-08T11:15:19;101332.81;;;14.74;42.58
76694;BME280;69667;52.136;5.424;2024-03-08T11:17:51;101338.25;;;14.21;44.18
76694;BME280;69667;52.136;5.424;2024-03-08T11:20:19;101327.56;;;13.64;44.63
76694;BME280;69667;52.136;5.424;2024-03-08T11:23:03;101314.09;;;13.40;45.84
76694;BME280;69667;52.136;5.424;2024-03-08T11:25:38;101314.06;;;13.07;45.53
76694;BME280;69667;52.136;5.424;2024-03-08T11:28:19;101302.00;;;12.77;46.30
76694;BME280;69667;52.136;5.424;2024-03-08T11:33:28;101287.34;;;11.97;48.15
76694;BME280;69667;52.136;5.424;2024-03-08T11:36:20;101292.28;;;11.55;49.03
76694;BME280;69667;52.136;5.424;2024-03-08T11:38:49;101289.06;;;11.49;50.12
76694;BME280;69667;52.136;5.424;2024-03-08T11:41:19;101290.53;;;11.53;50.06
76694;BME280;69667;52.136;5.424;2024-03-08T11:43:49;101270.25;;;11.48;50.24
76694;BME280;69667;52.136;5.424;2024-03-08T11:46:17;101273.25;;;11.43;50.16
76694;BME280;69667;52.136;5.424;2024-03-08T11:48:47;101266.63;;;11.60;50.99
76694;BME280;69667;52.136;5.424;2024-03-08T11:51:15;101268.88;;;11.79;50.26
76694;BME280;69667;52.136;5.424;2024-03-08T11:53:46;101260.38;;;11.72;50.21
76694;BME280;69667;52.136;5.424;2024-03-08T11:56:16;101262.22;;;11.95;50.06
76694;BME280;69667;52.136;5.424;2024-03-08T11:58:54;101244.03;;;11.74;48.76
76694;BME280;69667;52.136;5.424;2024-03-08T12:01:24;101244.91;;;11.49;48.75
76694;BME280;69667;52.136;5.424;2024-03-08T12:04:01;101233.22;;;11.61;48.38
76694;BME280;69667;52.136;5.424;2024-03-08T12:06:37;101234.84;;;11.64;49.49
76694;BME280;69667;52.136;5.424;2024-03-08T12:09:11;101244.78;;;11.63;49.17
76694;BME280;69667;52.136;5.424;2024-03-08T12:11:40;101236.59;;;11.52;49.10
76694;BME280;69667;52.136;5.424;2024-03-08T12:14:12;101229.88;;;11.58;49.34
76694;BME280;69667;52.136;5.424;2024-03-08T12:16:43;101232.94;;;11.40;49.41
76694;BME280;69667;52.136;5.424;2024-03-08T12:19:11;101224.59;;;11.43;49.31
76694;BME280;69667;52.136;5.424;2024-03-08T12:21:39;101219.06;;;11.58;49.71
76694;BME280;69667;52.136;5.424;2024-03-08T12:24:15;101218.81;;;11.61;49.25
76694;BME280;69667;52.136;5.424;2024-03-08T12:26:43;101218.00;;;11.47;49.13
76694;BME280;69667;52.136;5.424;2024-03-08T12:29:25;101205.91;;;11.40;49.56
76694;BME280;69667;52.136;5.424;2024-03-08T12:31:59;101197.44;;;11.45;50.06
76694;BME280;69667;52.136;5.424;2024-03-08T12:34:29;101199.03;;;11.60;50.12
76694;BME280;69667;52.136;5.424;2024-03-08T12:36:59;101183.47;;;11.64;49.65
76694;BME280;69667;52.136;5.424;2024-03-08T12:39:40;101189.78;;;11.52;49.34
76694;BME280;69667;52.136;5.424;2024-03-08T12:42:12;101186.63;;;11.45;49.37
76694;BME280;69667;52.136;5.424;2024-03-08T12:44:39;101182.63;;;11.50;49.61
76694;BME280;69667;52.136;5.424;2024-03-08T12:47:10;101180.75;;;11.27;49.04
76694;BME280;69667;52.136;5.424;2024-03-08T12:49:40;101173.88;;;11.11;49.29
76694;BME280;69667;52.136;5.424;2024-03-08T12:52:10;101161.09;;;11.25;49.76
76694;BME280;69667;52.136;5.424;2024-03-08T12:54:37;101161.78;;;11.16;49.34
76694;BME280;69667;52.136;5.424;2024-03-08T12:57:04;101168.34;;;11.12;50.03
76694;BME280;69667;52.136;5.424;2024-03-08T12:59:32;101160.47;;;11.09;50.24
76694;BME280;69667;52.136;5.424;2024-03-08T13:01:59;101156.78;;;11.10;50.42
76694;BME280;69667;52.136;5.424;2024-03-08T13:04:27;101162.88;;;11.01;49.74
76694;BME280;69667;52.136;5.424;2024-03-08T13:06:54;101162.53;;;11.06;50.10
76694;BME280;69667;52.136;5.424;2024-03-08T13:09:23;101149.25;;;11.03;50.69